createdAt,value
2022-11-29T00:00:16.565Z,7.07
2022-11-29T00:03:18.584Z,4.70
2022-11-29T00:06:27.590Z,6.73
2022-11-29T00:09:29.434Z,9.13
2022-11-29T00:12:31.509Z,7.07
2022-11-29T00:15:36.952Z,7.20
2022-11-29T00:18:38.903Z,11.27
2022-11-29T00:21:40.780Z,7.07
2022-11-29T00:24:43.385Z,11.90
2022-11-29T00:27:45.558Z,8.17
2022-11-29T00:30:47.544Z,7.83
2022-11-29T00:33:50.302Z,12.80
2022-11-29T00:36:52.529Z,5.73
2022-11-29T00:39:54.516Z,4.43
2022-11-29T00:42:56.430Z,4.23
2022-11-29T00:45:58.450Z,6.70
2022-11-29T00:49:00.398Z,5.47
2022-11-29T00:52:02.412Z,7.93
2022-11-29T00:55:04.594Z,6.93
2022-11-29T01:02:29.237Z,6.53
2022-11-29T01:05:31.856Z,6.13
2022-11-29T01:08:34.062Z,6.63
2022-11-29T01:11:36.134Z,9.23
2022-11-29T01:14:38.158Z,6.37
2022-11-29T01:17:40.506Z,8.57
2022-11-29T01:20:42.528Z,7.40
2022-11-29T01:23:46.261Z,8.07
2022-11-29T01:26:48.252Z,8.00
2022-11-29T01:29:50.363Z,6.90
2022-11-29T01:32:52.326Z,8.87
2022-11-29T01:35:55.322Z,7.87
2022-11-29T01:39:00.576Z,8.20
2022-11-29T01:42:03.201Z,8.80
2022-11-29T01:45:21.868Z,9.13
2022-11-29T01:48:26.718Z,8.27
2022-11-29T01:51:29.581Z,6.30
2022-11-29T01:54:32.862Z,9.90
2022-11-29T01:57:36.160Z,5.27
2022-11-29T02:00:38.061Z,7.70
2022-11-29T02:03:40.181Z,7.07
2022-11-29T02:06:42.283Z,7.50
2022-11-29T02:09:44.521Z,6.83
2022-11-29T02:12:55.603Z,5.03
2022-11-29T02:16:24.255Z,9.93
2022-11-29T02:19:41.284Z,5.43
2022-11-29T02:22:55.844Z,6.10
2022-11-29T02:26:25.392Z,7.67
2022-11-29T02:29:42.510Z,7.80
2022-11-29T02:33:06.481Z,6.20
2022-11-29T02:36:30.424Z,5.50
2022-11-29T02:39:50.311Z,5.43
2022-11-29T02:43:08.281Z,5.03
2022-11-29T02:46:34.958Z,7.50
2022-11-29T02:49:43.020Z,5.50
2022-11-29T02:53:01.921Z,8.53
2022-11-29T02:56:12.781Z,7.30
2022-11-29T02:59:33.424Z,5.87
2022-11-29T03:03:02.641Z,5.53
2022-11-29T03:06:30.902Z,5.47
2022-11-29T03:09:40.725Z,7.10
2022-11-29T03:12:46.511Z,7.67
2022-11-29T03:15:59.472Z,4.83
2022-11-29T03:19:10.431Z,6.60
2022-11-29T03:22:13.811Z,6.43
2022-11-29T03:25:57.162Z,4.73
2022-11-29T03:29:25.362Z,7.63
2022-11-29T03:32:42.805Z,8.40
2022-11-29T03:35:54.801Z,5.10
2022-11-29T03:39:01.323Z,6.00
2022-11-29T03:42:11.662Z,7.90
2022-11-29T03:45:26.481Z,5.73
2022-11-29T03:48:33.831Z,8.03
2022-11-29T03:51:59.118Z,5.20
2022-11-29T03:55:20.541Z,7.93
2022-11-29T03:58:35.121Z,6.70
2022-11-29T04:01:49.105Z,7.60
2022-11-29T04:05:09.340Z,10.80
2022-11-29T04:08:37.461Z,9.07
2022-11-29T04:12:07.220Z,6.37
2022-11-29T04:15:21.121Z,8.70
2022-11-29T04:18:47.560Z,6.50
2022-11-29T04:22:11.133Z,6.67
2022-11-29T04:25:27.282Z,8.33
2022-11-29T04:28:53.791Z,6.23
2022-11-29T04:32:23.828Z,6.20
2022-11-29T04:35:52.210Z,9.50
2022-11-29T04:39:03.342Z,7.80
2022-11-29T04:43:02.470Z,7.23
2022-11-29T04:46:43.257Z,13.90
2022-11-29T04:50:19.102Z,14.13
2022-11-29T04:53:31.761Z,18.17
2022-11-29T04:56:42.100Z,16.67
2022-11-29T04:59:52.080Z,5.90
2022-11-29T05:03:03.117Z,13.97
2022-11-29T05:06:50.903Z,12.30
2022-11-29T05:10:17.591Z,10.90
2022-11-29T05:13:29.431Z,8.37
2022-11-29T05:17:06.711Z,7.00
2022-11-29T05:20:34.911Z,8.63
2022-11-29T05:23:54.292Z,9.60
2022-11-29T05:27:24.610Z,6.77
2022-11-29T05:30:40.472Z,9.60
2022-11-29T05:33:45.400Z,8.07
2022-11-29T05:36:58.692Z,10.17
2022-11-29T05:40:37.962Z,12.93
2022-11-29T05:43:49.531Z,8.13
2022-11-29T05:47:03.281Z,10.07
2022-11-29T05:50:22.481Z,11.37
2022-11-29T05:53:30.770Z,8.07
2022-11-29T05:56:45.452Z,6.57
2022-11-29T05:59:48.228Z,7.67
2022-11-29T06:03:09.540Z,8.40
2022-11-29T06:06:24.960Z,14.83
2022-11-29T06:09:31.223Z,7.27
2022-11-29T06:12:38.111Z,6.00
2022-11-29T06:16:21.896Z,7.30
2022-11-29T06:20:01.370Z,7.17
2022-11-29T06:23:18.371Z,6.37
2022-11-29T06:26:45.132Z,5.33
2022-11-29T06:29:49.972Z,9.43
2022-11-29T06:32:55.671Z,7.80
2022-11-29T06:36:13.002Z,5.27
2022-11-29T06:39:15.388Z,11.80
2022-11-29T06:42:17.400Z,12.73
2022-11-29T06:45:19.931Z,9.33
2022-11-29T06:48:27.831Z,9.23
2022-11-29T06:51:36.870Z,8.07
2022-11-29T06:55:17.500Z,7.00
2022-11-29T06:58:39.871Z,11.13
2022-11-29T07:01:47.024Z,10.07
2022-11-29T07:05:01.240Z,7.07
2022-11-29T07:08:13.162Z,10.93
2022-11-29T07:11:15.722Z,11.70
2022-11-29T07:14:18.016Z,8.60
2022-11-29T07:17:51.881Z,12.20
2022-11-29T07:21:00.282Z,7.17
2022-11-29T07:24:11.910Z,15.30
2022-11-29T07:27:21.901Z,14.30
2022-11-29T07:30:47.491Z,9.50
2022-11-29T07:34:07.570Z,10.77
2022-11-29T07:37:24.761Z,11.67
2022-11-29T07:40:37.945Z,21.80
2022-11-29T07:44:01.402Z,15.07
2022-11-29T07:47:04.284Z,11.33
2022-11-29T07:50:07.143Z,10.90
2022-11-29T07:53:16.520Z,14.60
2022-11-29T07:56:18.401Z,19.73
2022-11-29T07:59:20.821Z,14.87
2022-11-29T08:02:30.091Z,14.37
2022-11-29T08:05:32.102Z,11.17
2022-11-29T08:08:36.649Z,13.77
2022-11-29T08:11:41.443Z,10.17
2022-11-29T08:14:43.795Z,7.47
2022-11-29T08:17:46.699Z,8.97
2022-11-29T08:20:49.653Z,8.40
2022-11-29T08:23:51.881Z,11.83
2022-11-29T08:26:54.201Z,9.43
2022-11-29T08:29:56.573Z,7.53
2022-11-29T08:32:58.542Z,8.87
2022-11-29T08:36:07.614Z,7.70
2022-11-29T08:39:09.858Z,11.43
2022-11-29T08:42:12.141Z,8.63
2022-11-29T08:45:14.311Z,6.60
2022-11-29T08:48:16.271Z,14.40
2022-11-29T08:51:18.184Z,14.00
2022-11-29T08:54:20.892Z,7.23
2022-11-29T08:57:40.270Z,9.93
2022-11-29T09:00:47.440Z,9.43
2022-11-29T09:04:05.681Z,15.03
2022-11-29T09:07:08.301Z,10.23
2022-11-29T09:10:11.521Z,6.37
2022-11-29T09:13:13.571Z,8.07
2022-11-29T09:16:18.654Z,6.17
2022-11-29T09:19:20.754Z,6.57
2022-11-29T09:22:22.744Z,5.57
2022-11-29T09:25:24.754Z,7.33
2022-11-29T09:28:27.065Z,5.10
2022-11-29T09:31:31.110Z,7.10
2022-11-29T09:34:33.181Z,5.80
2022-11-29T09:37:37.183Z,6.80
2022-11-29T09:40:47.201Z,6.87
2022-11-29T09:44:34.312Z,8.90
2022-11-29T09:47:45.172Z,6.53
2022-11-29T09:51:02.392Z,7.13
2022-11-29T09:54:23.003Z,5.03
2022-11-29T09:57:27.494Z,3.97
2022-11-29T10:00:30.548Z,7.13
2022-11-29T10:03:36.899Z,4.60
2022-11-29T10:07:04.510Z,6.90
2022-11-29T10:10:09.285Z,6.90
2022-11-29T10:13:23.435Z,6.03
2022-11-29T10:17:04.708Z,5.23
2022-11-29T10:20:13.661Z,8.50
2022-11-29T10:23:39.368Z,7.43
2022-11-29T10:26:43.638Z,5.87
2022-11-29T10:29:49.294Z,8.70
2022-11-29T10:32:56.638Z,4.37
2022-11-29T10:36:00.978Z,4.80
2022-11-29T10:39:14.386Z,5.40
2022-11-29T10:42:36.062Z,5.33
2022-11-29T10:45:46.123Z,4.43
2022-11-29T10:48:47.998Z,4.80
2022-11-29T10:51:49.948Z,4.40
2022-11-29T10:54:57.480Z,5.30
2022-11-29T10:58:29.272Z,4.90
2022-11-29T11:01:33.097Z,7.57
2022-11-29T11:04:42.588Z,5.40
2022-11-29T11:07:46.491Z,7.43
2022-11-29T11:10:58.638Z,6.53
2022-11-29T11:14:27.505Z,6.13
2022-11-29T11:17:33.043Z,5.67
2022-11-29T11:20:40.911Z,5.23
2022-11-29T11:23:51.949Z,9.00
2022-11-29T11:26:54.108Z,6.80
2022-11-29T11:29:56.008Z,7.53
2022-11-29T11:33:21.876Z,6.60
2022-11-29T11:36:27.379Z,7.63
2022-11-29T11:39:29.437Z,7.13
2022-11-29T11:42:37.127Z,6.17
2022-11-29T11:45:39.218Z,6.40
2022-11-29T11:48:42.620Z,6.23
2022-11-29T11:51:44.784Z,8.10
2022-11-29T11:55:00.369Z,4.93
2022-11-29T11:58:10.367Z,5.73
2022-11-29T12:01:12.624Z,6.93
2022-11-29T12:04:31.703Z,8.83
2022-11-29T12:08:08.129Z,7.47
2022-11-29T12:11:14.076Z,7.20
2022-11-29T12:14:24.569Z,6.67
2022-11-29T12:17:47.749Z,6.67
2022-11-29T12:21:20.237Z,9.37
2022-11-29T12:24:29.361Z,12.03
2022-11-29T12:27:32.099Z,13.80
2022-11-29T12:30:34.278Z,9.63
2022-11-29T12:33:42.095Z,8.53
2022-11-29T12:37:14.565Z,9.10
2022-11-29T12:40:39.837Z,9.30
2022-11-29T12:44:00.820Z,7.93
2022-11-29T12:47:38.141Z,8.93
2022-11-29T12:51:06.044Z,8.97
2022-11-29T12:54:10.793Z,9.33
2022-11-29T12:57:31.016Z,9.40
2022-11-29T13:00:39.518Z,10.47
2022-11-29T13:04:37.210Z,10.17
2022-11-29T13:07:57.552Z,10.53
2022-11-29T13:11:06.413Z,9.03
2022-11-29T13:14:54.931Z,11.47
2022-11-29T13:18:04.338Z,9.77
2022-11-29T13:21:15.717Z,11.50
2022-11-29T13:24:25.391Z,10.50
2022-11-29T13:27:37.496Z,9.37
2022-11-29T13:30:39.912Z,10.80
2022-11-29T13:34:00.502Z,12.17
2022-11-29T13:37:16.144Z,8.77
2022-11-29T13:40:31.005Z,8.40
2022-11-29T13:43:38.870Z,8.90
2022-11-29T13:47:10.806Z,13.43
2022-11-29T13:50:44.494Z,12.27
2022-11-29T13:53:49.176Z,14.13
2022-11-29T13:57:02.378Z,14.57
2022-11-29T14:00:05.019Z,16.13
2022-11-29T14:03:22.210Z,15.97
2022-11-29T14:06:36.829Z,17.67
2022-11-29T14:09:44.399Z,16.70
2022-11-29T14:12:49.806Z,15.60
2022-11-29T14:15:57.396Z,18.37
2022-11-29T14:19:08.509Z,21.57
2022-11-29T14:22:22.529Z,25.57
2022-11-29T14:28:48.550Z,21.40
2022-11-29T14:31:52.207Z,21.20
2022-11-29T14:35:12.249Z,19.77
2022-11-29T14:38:58.438Z,20.67
2022-11-29T14:42:15.050Z,21.63
2022-11-29T14:45:33.914Z,27.03
2022-11-29T14:48:36.840Z,20.53
2022-11-29T14:51:38.854Z,26.70
2022-11-29T14:55:08.373Z,26.10
2022-11-29T14:58:19.303Z,20.00
2022-11-29T15:01:21.434Z,25.17
2022-11-29T15:04:25.907Z,23.20
2022-11-29T15:07:30.467Z,23.23
2022-11-29T15:10:37.345Z,19.57
2022-11-29T15:13:49.230Z,21.97
2022-11-29T15:16:54.172Z,33.13
2022-11-29T15:20:10.706Z,24.87
2022-11-29T15:23:18.779Z,22.70
2022-11-29T15:26:22.587Z,22.60
2022-11-29T15:29:25.353Z,18.90
2022-11-29T15:32:32.914Z,20.02
2022-11-29T15:35:36.179Z,18.37
2022-11-29T15:38:45.523Z,17.67
2022-11-29T15:41:47.465Z,18.23
2022-11-29T15:44:49.924Z,17.30
2022-11-29T15:47:52.562Z,21.00
2022-11-29T15:51:06.854Z,22.07
2022-11-29T15:54:25.536Z,20.67
2022-11-29T15:57:33.406Z,20.63
2022-11-29T16:00:35.533Z,20.10
2022-11-29T16:03:39.942Z,22.30
2022-11-29T16:06:42.993Z,28.10
2022-11-29T16:09:50.095Z,20.90
2022-11-29T16:12:58.058Z,26.93
2022-11-29T16:16:21.926Z,24.40
2022-11-29T16:19:35.558Z,25.50
2022-11-29T16:22:37.538Z,26.13
2022-11-29T16:26:19.167Z,25.40
2022-11-29T16:29:27.993Z,24.47
2022-11-29T16:32:35.439Z,26.83
2022-11-29T16:35:38.099Z,24.57
2022-11-29T16:38:51.803Z,27.53
2022-11-29T16:42:25.761Z,25.37
2022-11-29T16:45:36.113Z,27.43
2022-11-29T16:48:39.049Z,29.10
2022-11-29T16:51:48.155Z,29.53
2022-11-29T16:54:51.377Z,27.43
2022-11-29T16:57:53.333Z,25.67
2022-11-29T17:00:55.887Z,24.63
2022-11-29T17:03:59.763Z,25.83
2022-11-29T17:07:04.883Z,24.23
2022-11-29T17:10:08.938Z,25.97
2022-11-29T17:13:12.340Z,25.43
2022-11-29T17:16:16.283Z,23.53
2022-11-29T17:19:20.675Z,27.03
2022-11-29T17:22:22.625Z,24.27
2022-11-29T17:25:25.159Z,24.07
2022-11-29T17:28:27.163Z,26.20
2022-11-29T17:31:30.210Z,26.33
2022-11-29T17:34:32.242Z,28.87
2022-11-29T17:37:34.238Z,22.67
2022-11-29T17:40:38.550Z,27.50
2022-11-29T17:43:40.937Z,31.57
2022-11-29T17:46:43.123Z,32.60
2022-11-29T17:49:46.335Z,30.20
2022-11-29T17:52:48.407Z,26.83
2022-11-29T17:55:50.374Z,27.87
2022-11-29T17:58:57.199Z,30.50
2022-11-29T18:01:59.768Z,28.60
2022-11-29T18:05:01.713Z,29.10
2022-11-29T18:08:06.105Z,27.57
2022-11-29T18:11:11.208Z,29.50
2022-11-29T18:14:15.489Z,27.77
2022-11-29T18:17:17.433Z,31.83
2022-11-29T18:20:19.437Z,31.27
2022-11-29T18:23:21.359Z,34.63
2022-11-29T18:26:24.595Z,30.53
2022-11-29T18:29:26.541Z,31.77
2022-11-29T18:32:28.555Z,31.20
2022-11-29T18:35:30.964Z,32.47
2022-11-29T18:38:33.382Z,30.77
2022-11-29T18:41:35.770Z,34.20
2022-11-29T18:44:38.661Z,31.00
2022-11-29T18:47:40.522Z,34.47
2022-11-29T18:50:42.540Z,37.43
2022-11-29T18:53:45.498Z,39.83
2022-11-29T18:56:50.196Z,42.20
2022-11-29T18:59:52.126Z,41.40
2022-11-29T19:02:54.649Z,42.47
2022-11-29T19:05:56.563Z,42.97
2022-11-29T19:08:58.745Z,38.57
2022-11-29T19:12:02.590Z,40.27
2022-11-29T19:15:05.294Z,37.70
2022-11-29T19:18:07.144Z,45.33
2022-11-29T19:21:14.459Z,38.60
2022-11-29T19:24:18.573Z,45.57
2022-11-29T19:27:21.572Z,42.00
2022-11-29T19:30:23.427Z,45.10
2022-11-29T19:33:25.429Z,39.20
2022-11-29T19:36:30.944Z,44.00
2022-11-29T19:39:34.410Z,44.27
2022-11-29T19:42:37.814Z,49.57
2022-11-29T19:45:41.077Z,39.83
2022-11-29T19:48:43.619Z,42.50
2022-11-29T19:51:45.951Z,44.03
2022-11-29T19:54:47.760Z,47.43
2022-11-29T19:57:49.676Z,42.53
2022-11-29T20:00:51.560Z,45.70
2022-11-29T20:03:55.759Z,43.50
2022-11-29T20:06:58.252Z,44.93
2022-11-29T20:10:00.311Z,41.17
2022-11-29T20:13:02.206Z,53.50
2022-11-29T20:16:16.338Z,46.93
2022-11-29T20:19:18.524Z,43.40
2022-11-29T20:22:20.793Z,42.93
2022-11-29T20:25:24.788Z,48.60
2022-11-29T20:28:32.977Z,47.57
2022-11-29T20:31:44.356Z,46.13
2022-11-29T20:34:52.768Z,47.13
2022-11-29T20:37:57.415Z,53.13
2022-11-29T20:41:07.010Z,42.80
2022-11-29T20:44:17.325Z,50.00
2022-11-29T20:47:35.379Z,55.20
2022-11-29T20:50:40.758Z,47.77
2022-11-29T20:53:46.439Z,48.17
2022-11-29T20:56:48.320Z,49.77
2022-11-29T20:59:50.256Z,53.53
2022-11-29T21:02:52.381Z,56.03
2022-11-29T21:05:55.978Z,51.17
2022-11-29T21:08:57.823Z,53.13
2022-11-29T21:11:59.972Z,54.30
2022-11-29T21:15:02.096Z,46.47
2022-11-29T21:18:04.773Z,50.10
2022-11-29T21:21:44.994Z,49.20
2022-11-29T21:24:47.431Z,52.37
2022-11-29T21:27:49.754Z,46.17
2022-11-29T21:30:52.029Z,44.97
2022-11-29T21:33:54.295Z,53.83
2022-11-29T21:36:59.336Z,55.87
2022-11-29T21:40:01.274Z,47.63
2022-11-29T21:43:03.277Z,52.63
2022-11-29T21:46:05.282Z,54.10
2022-11-29T21:49:07.562Z,55.60
2022-11-29T21:52:09.459Z,50.07
2022-11-29T21:55:11.645Z,52.33
2022-11-29T21:58:13.483Z,57.37
2022-11-29T22:01:17.485Z,57.77
2022-11-29T22:04:20.234Z,63.27
2022-11-29T22:07:24.778Z,74.67
2022-11-29T22:10:28.205Z,61.50
2022-11-29T22:13:30.669Z,59.60
2022-11-29T22:16:32.665Z,63.37
2022-11-29T22:19:36.735Z,62.50
2022-11-29T22:22:38.667Z,62.90
2022-11-29T22:25:41.144Z,52.47
2022-11-29T22:28:42.996Z,71.70
2022-11-29T22:31:49.260Z,62.43
2022-11-29T22:34:51.385Z,56.33
2022-11-29T22:37:53.351Z,60.53
2022-11-29T22:41:00.090Z,59.40
2022-11-29T22:44:03.325Z,59.43
2022-11-29T22:47:05.264Z,58.90
2022-11-29T22:50:07.558Z,64.00
2022-11-29T22:53:09.813Z,72.97
2022-11-29T22:56:13.106Z,65.93
2022-11-29T22:59:14.979Z,61.00
2022-11-29T23:02:17.664Z,68.53
2022-11-29T23:05:19.500Z,64.63
2022-11-29T23:08:21.500Z,76.53
2022-11-29T23:11:26.341Z,81.73
2022-11-29T23:14:28.343Z,76.10
2022-11-29T23:17:30.195Z,67.97
2022-11-29T23:20:32.156Z,76.87
2022-11-29T23:23:35.151Z,74.67
2022-11-29T23:26:40.993Z,63.37
2022-11-29T23:29:42.844Z,61.93
2022-11-29T23:32:45.245Z,64.97
2022-11-29T23:35:48.503Z,53.50
2022-11-29T23:38:50.681Z,57.37
2022-11-29T23:41:52.589Z,51.03
2022-11-29T23:44:54.576Z,62.10
2022-11-29T23:47:56.614Z,60.70
2022-11-29T23:50:58.534Z,61.53
2022-11-29T23:54:00.975Z,52.20
2022-11-29T23:57:03.942Z,58.10
